EDT,Max TemperatureF,Mean TemperatureF,Min TemperatureF,Max Dew PointF,MeanDew PointF,Min DewpointF,Max Humidity, Mean Humidity, Min Humidity, Max Sea Level PressureIn, Mean Sea Level PressureIn, Min Sea Level PressureIn, Max VisibilityMiles, Mean VisibilityMiles, Min VisibilityMiles, Max Wind SpeedMPH, Mean Wind SpeedMPH, Max Gust SpeedMPH,PrecipitationIn, CloudCover, Events, WindDirDegrees
2013-6-1,90,79,67,70,66,61,100,69,38,30.17,30.11,30.03,10,8,0,15,7,20,0.00,3,Fog,203
2013-6-2,91,80,68,69,66,60,97,68,38,30.07,30.00,29.91,10,10,5,20,10,26,T,4,,203
2013-6-3,77,74,70,73,71,68,97,90,82,29.95,29.90,29.83,10,9,2,18,6,22,0.40,6,Rain,192
2013-6-4,85,76,66,70,66,64,100,76,51,30.09,30.00,29.91,10,9,1,15,6,17,0.00,4,,48
2013-6-5,85,77,68,69,64,60,93,69,44,30.12,30.05,29.99,10,10,9,16,8,20,0.00,5,,97
2013-6-6,80,74,68,73,70,64,100,85,69,30.03,29.90,29.83,10,6,0,22,6,26,1.84,7,Fog-Rain,136
2013-6-7,79,75,70,74,71,68,100,87,74,29.84,29.64,29.44,10,6,1,26,9,37,2.36,7,Rain,108
2013-6-8,87,78,69,72,69,64,100,74,48,30.07,29.93,29.84,10,9,2,5,7,6,0.13,4,Rain,215
2013-6-9,88,80,71,73,71,69,100,78,55,30.16,30.11,30.05,10,6,0,9,5,33,0.31,4,Fog-Rain-Thunderstorm,163
2013-6-10,88,80,72,74,72,70,94,78,61,30.12,30.03,29.94,10,9,1,29,11,36,0.58,6,Rain-Thunderstorm,194
2013-6-11,89,80,70,71,68,61,100,71,41,29.97,29.94,29.89,10,10,8,16,9,23,0.00,5,,239
2013-6-12,93,80,67,73,67,62,90,66,41,29.98,29.92,29.86,10,10,10,15,6,18,0.00,0,,239
2013-6-13,98,85,71,73,69,56,94,64,33,29.85,29.74,29.61,10,9,2,41,13,53,0.35,2,Rain,233
2013-6-14,85,76,66,68,58,54,90,65,39,30.00,29.85,29.73,10,10,10,20,9,26,0.00,2,,353
2013-6-15,87,74,61,61,58,54,87,61,35,30.12,30.06,30.02,10,10,10,14,6,18,0.00,1,,218
2013-6-16,88,75,62,65,61,56,84,64,43,30.14,30.07,30.01,10,10,10,17,10,22,0.00,0,,212
2013-6-17,88,78,68,73,68,63,94,70,46,30.05,30.00,29.94,10,10,6,21,9,26,0.18,3,Rain,203
2013-6-18,88,79,70,72,70,69,100,80,59,29.96,29.88,29.77,10,9,6,20,9,25,0.14,5,Rain,211
2013-6-19,83,76,69,72,67,64,93,74,55,30.09,29.94,29.86,10,9,3,13,6,20,0.12,5,Rain,13
2013-6-20,85,74,63,65,61,58,100,70,40,30.21,30.16,30.10,10,9,2,16,7,21,0.00,0,,39
2013-6-21,86,73,59,66,60,55,93,67,40,30.22,30.19,30.14,10,10,10,14,7,17,0.00,2,,32
2013-6-22,83,77,70,73,71,66,97,86,74,30.17,30.14,30.10,10,8,2,14,6,18,0.05,7,Rain,29
2013-6-23,90,81,72,73,71,68,100,75,50,30.21,30.16,30.10,10,8,2,15,5,20,0.32,5,Rain-Thunderstorm,173
2013-6-24,88,80,72,74,72,66,100,79,57,30.21,30.17,30.10,10,9,4,17,5,22,0.02,5,Rain,213
2013-6-25,90,80,70,72,69,66,97,77,56,30.15,30.09,30.01,10,9,4,23,7,94,0.30,4,Rain-Thunderstorm,220
2013-6-26,90,80,69,75,70,66,100,80,59,30.05,29.99,29.92,10,8,1,29,8,36,0.70,3,Rain-Thunderstorm,229
2013-6-27,93,81,69,74,71,67,97,73,49,29.91,29.83,29.72,10,8,1,23,10,30,0.35,4,Rain,209
2013-6-28,92,83,74,74,72,69,94,73,52,29.77,29.69,29.60,10,10,6,26,9,31,0.03,3,,206
2013-6-29,88,80,72,73,71,70,93,76,59,29.74,29.67,29.62,10,10,10,16,8,21,0.02,5,,203
2013-6-30,86,80,73,74,73,70,94,78,61,29.86,29.79,29.71,10,9,1,16,6,21,0.38,6,Rain,174